Portada
METAR-TAF:

METAR-TAF

Aeroports :

Sinop, Turquia

latitud: 42-00-57N, longitud: 035-03-59E, altitud: 7 m

Observació

L'informe es va fer fa 40 minuts, a les 07:50 UTC
Vent 6 kt del Sud-Est, variant entre Est i Sud
Temperatura 29°C
Humitat 55%
Pressió 1008 hPa
Visibilitat 10 km o més
sense núvols per sota de 1500 mi sense presència de cumulonimbus.

METAR: LTCM 080750Z 13006KT 090V180 CAVOK 29/19 Q1008

Hora: 11:30 (08:30 UTC)

Pronòstic

L'informe es va fer fa 3 hores i 50 minuts, a les 04:40 UTC
Pronòstic vàlid del 08 a les 06 UTC al 08 a les 15 UTC
Vent 8 kt del Est
Visibilitat 10 km o més
sense núvols per sota de 1500 mi sense presència de cumulonimbus.

TAF: LTCM 080440Z 0806/0815 09008KT CAVOK

Observacions i pronòstics meteorològics de més de 4000 aeroports (METAR i TAF).

Les estacions disponibles són els punts grocs i vermells al mapa.

Posi el ratolí al punt desitjat per veure el nom de l'estació.

Feu clic per veure les observacions i els pronòstics meteorològics.

Per canviar el mapa: feu clic els botons verds amb una creu de color negre per apropar; al botó verd amb un guió per allunyar la imatge; o en les fletxes verdes per a mapes adjacents.


METAR-TAF: